Overview Statistics Trail Chart Weather Telemetry Raw packets
 

This is the latest recevied weather packets stored in our database for station/object Krozingen. If no packets are shown the sender has not sent any weather packets the latest 10 day(s).

<< 1 2 3 4 5 6 7 >>
Time Temp. Humidity Pressure Rain* Wind** Luminosity Snow
1788440530 28.33° C 41% 1021.3 hPa 0 mm - - -
1788438735 27.78° C 42% 1021.3 hPa 0 mm - - -
1788436935 27.22° C 42% 1021.7 hPa 0 mm - - -
1788435130 26.67° C 43% 1022.1 hPa 0 mm - - -
1788433330 26.11° C 46% 1022.4 hPa 0 mm - - -
1788431530 25.56° C 49% 1022.7 hPa 0 mm - - -
1788429731 25° C 50% 1022.8 hPa 0 mm - - -
1788427930 23.89° C 52% 1022.7 hPa 0 mm - - -
1788426130 23.33° C 57% 1022.8 hPa 0 mm - - -
1788424330 22.22° C 62% 1022.9 hPa 0 mm - - -
1788422530 21.11° C 67% 1023.3 hPa 0 mm - - -
1788420735 20° C 67% 1022.9 hPa 0 mm - - -
1788418930 20.56° C 65% 1022.9 hPa 0 mm - - -
1788417130 18.33° C 70% 1023.2 hPa 0 mm - - -
1788415329 16.11° C 77% 1023.5 hPa 0 mm - - -
1788413529 14.44° C 81% 1023.1 hPa 0 mm - - -
1788411729 14.44° C 82% 1022.8 hPa 0 mm - - -
1788409929 14.44° C 82% 1022.7 hPa 0 mm - - -
1788408130 15° C 82% 1022.7 hPa 0 mm - - -
1788406331 14.44° C 83% 1022.5 hPa 0 mm - - -
1788404529 15° C 82% 1022.6 hPa 0 mm - - -
1788402730 15.56° C 78% 1022.5 hPa 0 mm - - -
1788400929 15.56° C 79% 1022.5 hPa 0 mm - - -
1788399129 16.11° C 78% 1022.6 hPa 0 mm - - -
1788397329 16.11° C 78% 1022.5 hPa 0 mm - - -

* Rain since midnight (hover to see other rain measurements)
** Current wind speed in m/s (hover to see current wind gust speed)